Time;durP1;ratioP1;P1;durP2;ratioP2;P2;SDS_P1;SDS_P2;PMS_P1;PMS_P2;Temp;Humidity;BMP_temperature;BMP_pressure;BME280_temperature;BME280_humidity;BME280_pressure;Samples;Min_cycle;Max_cycle;Signal;HPM_P1;HPM_P2
2023/10/16 04:21:37;;;;;;;1.58;0.82;;;19.00;66.30;;;;;;6186416;23;20060;-73
2023/10/16 04:24:16;;;;;;;13.00;2.03;;;19.30;61.50;;;;;;6184870;23;20063;-74
2023/10/16 04:29:45;;;;;;;4.85;0.75;;;19.60;55.80;;;;;;6181944;23;20032;-76
2023/10/16 04:35:03;;;;;;;2.22;0.60;;;19.30;58.70;;;;;;6159326;23;20063;-75
2023/10/16 04:37:36;;;;;;;4.07;0.90;;;19.20;58.50;;;;;;6181272;23;20001;-74
2023/10/16 04:50:30;;;;;;;6.85;0.55;;;18.80;60.00;;;;;;6155675;23;20089;-74
2023/10/16 05:04:14;;;;;;;2.30;0.63;;;18.50;56.60;;;;;;6119833;23;20005;-73
2023/10/16 05:22:03;;;;;;;0.63;0.63;;;17.70;59.80;;;;;;6157650;23;20028;-83
2023/10/16 06:14:40;;;;;;;1.08;0.68;;;18.30;46.00;;;;;;6182192;23;20028;-76
2023/10/16 06:17:15;;;;;;;0.85;0.68;;;18.30;44.40;;;;;;6180919;23;20015;-76
2023/10/16 06:19:43;;;;;;;0.40;0.40;;;18.30;42.50;;;;;;6186789;23;20013;-77
2023/10/16 06:22:10;;;;;;;1.13;0.45;;;18.30;41.70;;;;;;6160106;23;20030;-76
2023/10/16 06:24:47;;;;;;;2.42;0.70;;;18.30;42.40;;;;;;6184642;23;20447;-76
2023/10/16 06:27:20;;;;;;;1.00;0.60;;;18.40;42.20;;;;;;6186295;23;20020;-76
2023/10/16 06:29:51;;;;;;;1.17;0.50;;;18.30;40.90;;;;;;6210718;23;20076;-77
2023/10/16 06:32:35;;;;;;;;;;;18.40;40.50;;;;;;6185666;23;20019;-76
2023/10/16 06:35:03;;;;;;;1.20;0.50;;;18.40;41.10;;;;;;6210723;23;19904;-78
2023/10/16 06:37:33;;;;;;;4.20;0.70;;;18.60;40.30;;;;;;6210709;23;20387;-77
2023/10/16 06:40:15;;;;;;;6.03;0.70;;;18.70;41.90;;;;;;6160899;23;20016;-77
2023/10/16 06:42:46;;;;;;;0.70;0.30;;;18.70;39.60;;;;;;6165911;23;20016;-76
2023/10/16 06:45:19;;;;;;;2.58;0.43;;;18.70;40.10;;;;;;6184028;23;20004;-76
2023/10/16 06:47:50;;;;;;;2.63;0.50;;;18.70;39.70;;;;;;6139070;23;20009;-77
2023/10/16 06:52:53;;;;;;;1.70;0.60;;;18.30;38.00;;;;;;6211687;23;20024;-78
2023/10/16 06:55:26;;;;;;;1.73;0.90;;;18.30;38.00;;;;;;6161021;23;20116;-80
2023/10/16 06:57:53;;;;;;;1.15;0.43;;;18.30;38.70;;;;;;6161467;23;20022;-78
2023/10/16 07:00:26;;;;;;;1.15;0.50;;;18.20;37.80;;;;;;6212644;23;20108;-77
2023/10/16 07:02:56;;;;;;;1.20;0.60;;;18.30;39.00;;;;;;6212573;23;20328;-79
2023/10/16 07:05:23;;;;;;;;;;;18.30;38.90;;;;;;6161565;23;20480;-82
2023/10/16 07:07:52;;;;;;;3.20;0.90;;;18.20;40.90;;;;;;6185431;23;19912;-82
2023/10/16 07:10:19;;;;;;;5.47;0.70;;;18.20;41.70;;;;;;6161672;23;20428;-83
2023/10/16 07:13:05;;;;;;;1.05;0.50;;;18.10;42.60;;;;;;6186607;23;20040;-80
2023/10/16 07:15:33;;;;;;;2.33;0.90;;;18.00;43.50;;;;;;6164247;23;20009;-83
2023/10/16 07:18:05;;;;;;;5.78;1.00;;;18.10;44.60;;;;;;6185685;23;20126;-82
2023/10/16 07:20:55;;;;;;;4.50;0.93;;;18.10;47.60;;;;;;6186605;23;20348;-81
2023/10/16 07:23:24;;;;;;;2.72;1.20;;;18.10;48.40;;;;;;6170093;23;20007;-78
2023/10/16 07:25:54;;;;;;;5.97;1.20;;;18.00;48.90;;;;;;6136025;23;20111;-76
2023/10/16 07:28:22;;;;;;;5.13;1.08;;;17.80;49.70;;;;;;6186785;23;20434;-77
2023/10/16 07:30:50;;;;;;;3.05;0.90;;;17.70;49.20;;;;;;6185686;23;20032;-78
2023/10/16 07:33:20;;;;;;;3.63;1.13;;;17.70;48.10;;;;;;6161092;23;20088;-76
2023/10/16 07:35:54;;;;;;;3.92;1.20;;;17.70;48.80;;;;;;6212794;23;20483;-76
2023/10/16 07:38:23;;;;;;;5.72;1.15;;;17.60;48.60;;;;;;6160967;23;20008;-76
2023/10/16 07:40:53;;;;;;;2.33;0.93;;;17.50;48.60;;;;;;6160526;23;19996;-77
2023/10/16 07:43:27;;;;;;;3.88;1.20;;;17.50;48.80;;;;;;6162168;23;20440;-77
2023/10/16 07:48:42;;;;;;;4.53;1.10;;;17.50;48.10;;;;;;6187110;23;20484;-77
2023/10/16 07:51:10;;;;;;;2.80;1.00;;;17.50;47.60;;;;;;6184974;23;20729;-77
2023/10/16 07:53:37;;;;;;;1.83;0.95;;;17.40;46.90;;;;;;6184102;23;20507;-76
2023/10/16 07:59:11;;;;;;;2.70;0.90;;;17.40;47.10;;;;;;6174942;23;20009;-77
2023/10/16 08:01:48;;;;;;;1.55;1.10;;;17.40;46.60;;;;;;6211850;23;20000;-77
2023/10/16 08:05:03;;;;;;;2.72;1.00;;;17.40;47.60;;;;;;6162262;23;20057;-76
2023/10/16 08:07:09;;;;;;;3.17;0.90;;;17.40;47.90;;;;;;6178328;23;20365;-76
2023/10/16 08:15:21;;;;;;;15.60;1.10;;;17.20;47.20;;;;;;6191699;23;20360;-78
2023/10/16 08:17:48;;;;;;;;;;;17.30;48.40;;;;;;6185061;23;20038;-77
2023/10/16 08:20:19;;;;;;;3.35;0.80;;;17.20;49.60;;;;;;6184419;23;19974;-79
2023/10/16 08:22:47;;;;;;;5.50;1.05;;;17.20;49.10;;;;;;6185341;23;20001;-76
2023/10/16 08:25:30;;;;;;;2.38;1.00;;;17.20;48.80;;;;;;6160624;23;20008;-80
2023/10/16 08:28:18;;;;;;;3.47;1.17;;;17.30;49.80;;;;;;6211128;23;20005;-78
2023/10/16 18:46:42;;;;;;;4.47;1.33;;;12.10;59.40;;;;;;6240579;23;20024;-69
2023/10/16 18:49:09;;;;;;;3.45;1.10;;;12.10;59.40;;;;;;6219447;23;20086;-69
2023/10/16 18:51:39;;;;;;;3.42;0.95;;;12.10;60.20;;;;;;6199777;23;20042;-69
2023/10/16 18:54:07;;;;;;;3.45;1.20;;;12.10;60.50;;;;;;6215688;23;20005;-69
2023/10/16 18:56:35;;;;;;;1.73;1.00;;;12.10;59.50;;;;;;6216173;23;20005;-69
2023/10/16 18:59:02;;;;;;;3.97;1.00;;;12.00;60.50;;;;;;6215915;23;20004;-69
2023/10/16 19:01:29;;;;;;;2.67;1.00;;;12.00;60.30;;;;;;6215419;23;20005;-69
2023/10/16 19:03:57;;;;;;;6.40;1.30;;;12.10;60.40;;;;;;6189113;23;20383;-69
2023/10/16 19:06:24;;;;;;;5.40;1.33;;;12.10;60.10;;;;;;6216053;23;20007;-69
2023/10/16 19:08:54;;;;;;;7.45;1.58;;;12.00;60.20;;;;;;6215314;23;20375;-69
2023/10/16 19:11:24;;;;;;;3.20;1.20;;;12.10;60.20;;;;;;6215754;23;20379;-69
2023/10/16 19:13:52;;;;;;;6.28;1.40;;;12.10;60.60;;;;;;6215752;23;20001;-69
2023/10/16 19:16:19;;;;;;;2.90;1.20;;;12.00;60.10;;;;;;6215985;23;20012;-69
2023/10/16 19:18:46;;;;;;;9.10;1.30;;;12.10;60.50;;;;;;6214856;23;20004;-70
2023/10/16 19:21:13;;;;;;;4.32;1.40;;;12.20;60.20;;;;;;6215924;23;20012;-69
2023/10/16 19:23:41;;;;;;;2.65;1.40;;;12.20;60.50;;;;;;6215879;23;20048;-69
2023/10/16 19:26:13;;;;;;;6.50;1.48;;;12.20;60.80;;;;;;6215766;23;20417;-69
2023/10/16 19:28:41;;;;;;;4.22;1.30;;;12.10;60.60;;;;;;6189864;23;20035;-70
2023/10/16 19:31:13;;;;;;;4.75;1.35;;;12.10;60.40;;;;;;6215186;23;20020;-69
2023/10/16 19:33:41;;;;;;;3.58;1.30;;;12.10;59.70;;;;;;6215454;23;20328;-69
2023/10/16 19:36:15;;;;;;;6.75;1.30;;;12.20;58.40;;;;;;6215502;23;20474;-69
2023/10/16 19:38:47;;;;;;;5.03;1.10;;;12.30;58.60;;;;;;6214730;23;20009;-69
2023/10/16 19:41:21;;;;;;;5.65;1.20;;;12.30;59.00;;;;;;6214879;23;20368;-69
2023/10/16 19:43:52;;;;;;;2.85;1.10;;;12.40;58.30;;;;;;6214619;23;20008;-70
